sensor_id;sensor_type;location;lat;lon;timestamp;P1;durP1;ratioP1;P2;durP2;ratioP2
29162;SDS011;20331;53.144;8.208;2022-09-09T00:08:21;14.18;;;9.77;;
29162;SDS011;20331;53.144;8.208;2022-09-09T00:40:07;13.65;;;10.85;;
29162;SDS011;20331;53.144;8.208;2022-09-09T01:01:07;25.90;;;11.18;;
29162;SDS011;20331;53.144;8.208;2022-09-09T01:11:47;16.55;;;11.30;;
29162;SDS011;20331;53.144;8.208;2022-09-09T01:22:34;17.05;;;10.80;;
29162;SDS011;20331;53.144;8.208;2022-09-09T01:33:12;16.35;;;11.18;;
29162;SDS011;20331;53.144;8.208;2022-09-09T01:43:36;29.70;;;11.93;;
29162;SDS011;20331;53.144;8.208;2022-09-09T01:53:58;18.88;;;10.45;;
29162;SDS011;20331;53.144;8.208;2022-09-09T02:15:07;14.77;;;11.25;;
29162;SDS011;20331;53.144;8.208;2022-09-09T02:25:37;16.67;;;10.60;;
29162;SDS011;20331;53.144;8.208;2022-09-09T02:36:02;18.30;;;10.77;;
29162;SDS011;20331;53.144;8.208;2022-09-09T02:57:23;21.30;;;9.52;;
29162;SDS011;20331;53.144;8.208;2022-09-09T03:07:48;15.63;;;9.48;;
29162;SDS011;20331;53.144;8.208;2022-09-09T03:18:11;16.23;;;9.70;;
29162;SDS011;20331;53.144;8.208;2022-09-09T03:38:54;13.00;;;7.80;;
29162;SDS011;20331;53.144;8.208;2022-09-09T03:49:16;13.77;;;7.72;;
29162;SDS011;20331;53.144;8.208;2022-09-09T04:09:59;15.57;;;8.03;;
29162;SDS011;20331;53.144;8.208;2022-09-09T04:30:43;8.85;;;6.07;;
29162;SDS011;20331;53.144;8.208;2022-09-09T04:41:05;8.77;;;5.78;;
29162;SDS011;20331;53.144;8.208;2022-09-09T04:51:27;9.82;;;5.75;;
29162;SDS011;20331;53.144;8.208;2022-09-09T05:01:49;15.95;;;7.25;;
29162;SDS011;20331;53.144;8.208;2022-09-09T05:12:11;12.70;;;6.03;;
29162;SDS011;20331;53.144;8.208;2022-09-09T05:32:58;11.60;;;5.43;;
29162;SDS011;20331;53.144;8.208;2022-09-09T05:43:19;10.38;;;5.18;;
29162;SDS011;20331;53.144;8.208;2022-09-09T05:53:41;9.70;;;6.85;;
29162;SDS011;20331;53.144;8.208;2022-09-09T06:04:03;7.60;;;4.82;;
29162;SDS011;20331;53.144;8.208;2022-09-09T06:24:48;9.93;;;5.10;;
29162;SDS011;20331;53.144;8.208;2022-09-09T06:45:31;7.13;;;5.30;;
29162;SDS011;20331;53.144;8.208;2022-09-09T06:55:53;9.98;;;5.15;;
29162;SDS011;20331;53.144;8.208;2022-09-09T07:06:17;10.60;;;5.28;;
29162;SDS011;20331;53.144;8.208;2022-09-09T07:16:44;10.18;;;4.93;;
29162;SDS011;20331;53.144;8.208;2022-09-09T07:27:06;7.95;;;4.57;;
29162;SDS011;20331;53.144;8.208;2022-09-09T07:47:49;12.38;;;5.47;;
29162;SDS011;20331;53.144;8.208;2022-09-09T07:58:10;8.82;;;5.72;;
29162;SDS011;20331;53.144;8.208;2022-09-09T08:08:32;9.85;;;5.47;;
29162;SDS011;20331;53.144;8.208;2022-09-09T08:18:55;10.88;;;5.70;;
29162;SDS011;20331;53.144;8.208;2022-09-09T08:29:16;8.25;;;4.88;;
29162;SDS011;20331;53.144;8.208;2022-09-09T08:39:38;8.48;;;4.22;;
29162;SDS011;20331;53.144;8.208;2022-09-09T09:00:40;8.52;;;3.47;;
29162;SDS011;20331;53.144;8.208;2022-09-09T09:11:08;7.20;;;3.15;;
29162;SDS011;20331;53.144;8.208;2022-09-09T09:21:43;8.38;;;3.20;;
29162;SDS011;20331;53.144;8.208;2022-09-09T09:32:07;9.35;;;2.90;;
29162;SDS011;20331;53.144;8.208;2022-09-09T09:42:35;9.48;;;3.00;;
29162;SDS011;20331;53.144;8.208;2022-09-09T09:52:59;8.27;;;2.67;;
29162;SDS011;20331;53.144;8.208;2022-09-09T10:03:28;4.88;;;2.45;;
29162;SDS011;20331;53.144;8.208;2022-09-09T10:24:48;6.78;;;2.17;;
29162;SDS011;20331;53.144;8.208;2022-09-09T10:35:38;11.35;;;1.92;;
29162;SDS011;20331;53.144;8.208;2022-09-09T10:46:09;8.43;;;2.10;;
29162;SDS011;20331;53.144;8.208;2022-09-09T10:56:41;6.10;;;1.70;;
29162;SDS011;20331;53.144;8.208;2022-09-09T11:07:07;7.03;;;1.67;;
29162;SDS011;20331;53.144;8.208;2022-09-09T11:17:54;9.55;;;1.95;;
29162;SDS011;20331;53.144;8.208;2022-09-09T11:49:42;6.22;;;2.10;;
29162;SDS011;20331;53.144;8.208;2022-09-09T12:00:04;11.43;;;3.85;;
29162;SDS011;20331;53.144;8.208;2022-09-09T12:10:29;15.07;;;5.38;;
29162;SDS011;20331;53.144;8.208;2022-09-09T12:20:58;9.80;;;4.50;;
29162;SDS011;20331;53.144;8.208;2022-09-09T12:31:32;7.68;;;3.90;;
29162;SDS011;20331;53.144;8.208;2022-09-09T12:42:14;10.13;;;3.88;;
29162;SDS011;20331;53.144;8.208;2022-09-09T12:52:40;7.40;;;4.63;;
29162;SDS011;20331;53.144;8.208;2022-09-09T13:03:03;9.20;;;4.05;;
29162;SDS011;20331;53.144;8.208;2022-09-09T13:13:38;9.45;;;3.15;;
29162;SDS011;20331;53.144;8.208;2022-09-09T13:24:01;7.80;;;3.90;;
29162;SDS011;20331;53.144;8.208;2022-09-09T13:34:31;8.13;;;4.25;;
29162;SDS011;20331;53.144;8.208;2022-09-09T13:44:55;10.75;;;4.00;;
29162;SDS011;20331;53.144;8.208;2022-09-09T13:55:22;8.63;;;3.33;;
29162;SDS011;20331;53.144;8.208;2022-09-09T14:05:45;5.18;;;2.40;;
29162;SDS011;20331;53.144;8.208;2022-09-09T14:16:06;4.60;;;1.70;;
29162;SDS011;20331;53.144;8.208;2022-09-09T14:26:28;4.68;;;2.05;;
29162;SDS011;20331;53.144;8.208;2022-09-09T14:36:51;5.38;;;2.00;;
29162;SDS011;20331;53.144;8.208;2022-09-09T14:47:12;2.60;;;1.92;;
29162;SDS011;20331;53.144;8.208;2022-09-09T14:57:34;8.55;;;2.00;;
29162;SDS011;20331;53.144;8.208;2022-09-09T15:07:56;8.10;;;2.20;;
29162;SDS011;20331;53.144;8.208;2022-09-09T15:18:20;7.07;;;1.90;;
29162;SDS011;20331;53.144;8.208;2022-09-09T15:28:42;5.15;;;1.50;;
29162;SDS011;20331;53.144;8.208;2022-09-09T15:39:07;2.72;;;1.35;;
29162;SDS011;20331;53.144;8.208;2022-09-09T15:49:30;3.20;;;1.52;;
29162;SDS011;20331;53.144;8.208;2022-09-09T15:59:52;5.60;;;2.17;;
29162;SDS011;20331;53.144;8.208;2022-09-09T16:10:13;5.43;;;1.63;;
29162;SDS011;20331;53.144;8.208;2022-09-09T16:20:35;2.80;;;1.23;;
29162;SDS011;20331;53.144;8.208;2022-09-09T16:30:57;6.70;;;1.50;;
29162;SDS011;20331;53.144;8.208;2022-09-09T16:41:19;7.97;;;2.15;;
29162;SDS011;20331;53.144;8.208;2022-09-09T16:51:45;5.22;;;1.80;;
29162;SDS011;20331;53.144;8.208;2022-09-09T17:02:08;3.83;;;1.80;;
29162;SDS011;20331;53.144;8.208;2022-09-09T17:12:30;9.77;;;2.65;;
29162;SDS011;20331;53.144;8.208;2022-09-09T17:22:51;11.40;;;2.65;;
29162;SDS011;20331;53.144;8.208;2022-09-09T17:33:13;7.45;;;2.13;;
29162;SDS011;20331;53.144;8.208;2022-09-09T17:43:35;14.40;;;2.33;;
29162;SDS011;20331;53.144;8.208;2022-09-09T17:54:07;4.40;;;2.00;;
29162;SDS011;20331;53.144;8.208;2022-09-09T18:04:31;6.78;;;2.42;;
29162;SDS011;20331;53.144;8.208;2022-09-09T18:14:52;7.63;;;2.10;;
29162;SDS011;20331;53.144;8.208;2022-09-09T18:25:14;8.35;;;2.10;;
29162;SDS011;20331;53.144;8.208;2022-09-09T18:35:35;8.80;;;1.95;;
29162;SDS011;20331;53.144;8.208;2022-09-09T18:46:02;10.40;;;2.20;;
29162;SDS011;20331;53.144;8.208;2022-09-09T18:56:24;3.28;;;1.90;;
29162;SDS011;20331;53.144;8.208;2022-09-09T19:06:46;9.73;;;1.95;;
29162;SDS011;20331;53.144;8.208;2022-09-09T19:17:09;6.90;;;2.20;;
29162;SDS011;20331;53.144;8.208;2022-09-09T19:27:30;5.88;;;2.45;;
29162;SDS011;20331;53.144;8.208;2022-09-09T19:37:52;3.17;;;2.40;;
29162;SDS011;20331;53.144;8.208;2022-09-09T19:48:14;2.97;;;2.38;;
29162;SDS011;20331;53.144;8.208;2022-09-09T19:58:37;3.78;;;2.28;;
29162;SDS011;20331;53.144;8.208;2022-09-09T20:09:00;8.07;;;2.30;;
29162;SDS011;20331;53.144;8.208;2022-09-09T20:19:23;4.03;;;1.98;;
29162;SDS011;20331;53.144;8.208;2022-09-09T20:29:44;3.42;;;2.22;;
29162;SDS011;20331;53.144;8.208;2022-09-09T20:40:07;6.78;;;2.40;;
29162;SDS011;20331;53.144;8.208;2022-09-09T20:50:29;4.80;;;2.78;;
29162;SDS011;20331;53.144;8.208;2022-09-09T21:00:51;3.85;;;3.17;;
29162;SDS011;20331;53.144;8.208;2022-09-09T21:11:13;6.57;;;3.55;;
29162;SDS011;20331;53.144;8.208;2022-09-09T21:21:37;4.43;;;3.60;;
29162;SDS011;20331;53.144;8.208;2022-09-09T21:31:59;4.32;;;3.60;;
29162;SDS011;20331;53.144;8.208;2022-09-09T21:42:23;7.63;;;3.88;;
29162;SDS011;20331;53.144;8.208;2022-09-09T21:52:44;4.03;;;3.22;;
29162;SDS011;20331;53.144;8.208;2022-09-09T22:03:06;12.20;;;3.95;;
29162;SDS011;20331;53.144;8.208;2022-09-09T22:13:28;6.80;;;3.85;;
29162;SDS011;20331;53.144;8.208;2022-09-09T22:23:54;4.40;;;3.45;;
29162;SDS011;20331;53.144;8.208;2022-09-09T22:34:17;6.28;;;3.17;;
29162;SDS011;20331;53.144;8.208;2022-09-09T22:44:39;2.83;;;2.63;;
29162;SDS011;20331;53.144;8.208;2022-09-09T22:55:01;3.22;;;2.50;;
29162;SDS011;20331;53.144;8.208;2022-09-09T23:05:23;5.90;;;2.70;;
29162;SDS011;20331;53.144;8.208;2022-09-09T23:15:47;5.60;;;2.60;;
29162;SDS011;20331;53.144;8.208;2022-09-09T23:26:10;6.18;;;2.53;;
29162;SDS011;20331;53.144;8.208;2022-09-09T23:36:33;4.82;;;2.40;;
29162;SDS011;20331;53.144;8.208;2022-09-09T23:46:55;4.53;;;2.45;;
29162;SDS011;20331;53.144;8.208;2022-09-09T23:57:16;7.10;;;2.53;;
